Ruma, Illinois
Current Conditions -  °F | °C
As of 5:15 PM on Thursday 20 Nov 2014 (Local Time) from KSAR Reporting Station
Clear Clear  
Wind Chill: 25°   Ceiling: Unl
Heat Index: 31°   Visibility: 10mi
Dew Point: 20°   Wind: 6mph
Humidity: 64%   Direction: 30°NNE
Pressure: 30.23"   Gusts: NA
Location:  38.1575°N, 89.9813°W
Report Text: KSAR 202315Z AUTO 03005KT 10SM CLR 00/M06 A3023 RMK AO2 T10051065
Loading
Personal Weather Stations






























Interactive Weather Map New forecast layout! Learn more

10-Day Weather Forecast

Advertisements
Track Severe Weather on mobile